Time;durP1;ratioP1;P1;durP2;ratioP2;P2;SDS_P1;SDS_P2;PMS_P1;PMS_P2;Temp;Humidity;BMP_temperature;BMP_pressure;BME280_temperature;BME280_humidity;BME280_pressure;Samples;Min_cycle;Max_cycle;Signal;HPM_P1;HPM_P2
2021/06/25 11:49:38;;;;;;;1.80;1.50;;;;;;;16.92;67.57;101476.41;5829110;24;20046;31
2021/06/25 12:51:12;;;;;;;2.45;1.70;;;;;;;16.70;66.33;101375.38;5519497;24;19908;-84
2021/06/25 12:58:56;;;;;;;3.13;2.00;;;;;;;16.51;66.51;101357.41;5665529;24;20051;-83
2021/06/25 13:01:23;;;;;;;;;;;;;;;17.43;66.46;101504.28;4848681;29;20011;-85
2021/06/25 13:03:49;;;;;;;1.55;1.38;;;;;;;17.36;66.36;101510.63;4849377;29;19988;-85
2021/06/25 13:08:50;;;;;;;3.13;1.48;;;;;;;17.60;65.77;101532.53;5804049;24;20014;-81
2021/06/25 13:11:21;;;;;;;2.80;1.52;;;;;;;16.78;64.31;101360.69;4867014;29;20018;-83
2021/06/25 13:13:47;;;;;;;1.50;1.35;;;;;;;17.82;64.10;101520.13;4867634;29;20052;-86
2021/06/25 13:16:16;;;;;;;1.60;1.40;;;;;;;16.75;63.89;101329.34;4894951;29;20041;-86
2021/06/25 13:18:44;;;;;;;1.77;1.35;;;;;;;17.82;63.72;101452.06;4872876;29;20074;-85
2021/06/25 14:42:56;;;;;;;2.97;1.30;;;;;;;16.83;65.93;101380.72;5838829;24;20219;-76
2021/06/25 14:47:59;;;;;;;1.80;1.35;;;;;;;16.71;65.41;101330.03;5437039;24;19912;-86
2021/06/25 15:16:51;;;;;;;2.05;1.13;;;;;;;18.24;63.88;101520.16;5887495;24;20040;31
2021/06/25 15:19:17;;;;;;;2.08;1.35;;;;;;;17.05;64.38;101361.19;4807891;29;20032;-86
2021/06/25 16:05:35;;;;;;;2.90;1.60;;;;;;;18.13;64.90;101492.91;4787737;29;20051;-79
2021/06/25 16:08:00;;;;;;;3.40;1.52;;;;;;;17.97;65.53;101467.16;4792130;29;20053;-78
2021/06/25 16:10:27;;;;;;;2.60;1.90;;;;;;;17.89;66.37;101489.28;4776044;30;20037;-78
2021/06/25 16:12:54;;;;;;;2.88;1.58;;;;;;;17.67;66.74;101481.56;4785770;30;20039;-78
2021/06/25 16:15:20;;;;;;;2.67;1.80;;;;;;;17.84;66.57;101484.50;4788042;29;20039;-78
2021/06/25 16:17:45;;;;;;;5.40;1.85;;;;;;;18.01;66.68;101498.28;4785655;30;20035;-77
2021/06/25 16:20:12;;;;;;;2.95;1.95;;;;;;;18.15;65.88;101494.34;4789828;29;20257;-78
2021/06/25 16:22:39;;;;;;;2.22;2.03;;;;;;;17.97;66.48;101494.38;4773177;30;20035;-77
2021/06/25 16:25:06;;;;;;;2.53;1.63;;;;;;;17.84;67.35;101476.34;4790485;29;20031;-77
2021/06/25 16:27:32;;;;;;;2.83;1.80;;;;;;;17.82;67.39;101492.09;4775456;30;20093;-77
2021/06/25 16:29:58;;;;;;;2.45;2.00;;;;;;;17.67;68.32;101494.34;4790824;29;20458;-77
2021/06/25 16:32:23;;;;;;;2.42;2.22;;;;;;;17.45;69.05;101493.97;4790547;29;20067;-77
2021/06/25 16:34:48;;;;;;;2.47;1.75;;;;;;;17.26;68.73;101472.25;4789660;30;20039;-77
2021/06/25 16:37:14;;;;;;;3.97;2.08;;;;;;;17.26;69.39;101482.28;4788958;30;20123;-77
2021/06/25 16:39:39;;;;;;;3.22;2.03;;;;;;;17.24;69.45;101496.09;4790415;29;20035;-77
2021/06/25 16:42:05;;;;;;;2.08;1.88;;;;;;;17.09;69.56;101461.13;4773408;30;20055;-76
2021/06/25 16:44:31;;;;;;;2.92;2.10;;;;;;;17.18;69.64;101483.41;4789405;30;20054;-76
2021/06/25 16:46:56;;;;;;;2.15;1.73;;;;;;;17.23;69.44;101494.44;4790031;29;20035;-77
2021/06/25 16:49:22;;;;;;;2.63;1.80;;;;;;;17.49;68.61;101508.81;4774656;30;20031;-77
2021/06/25 16:51:47;;;;;;;2.72;1.80;;;;;;;17.66;68.58;101493.50;4789655;30;20031;-77
2021/06/25 16:54:13;;;;;;;3.08;1.88;;;;;;;17.65;67.91;101486.41;4788984;30;20451;-77
2021/06/25 16:56:38;;;;;;;2.95;1.83;;;;;;;17.48;68.10;101467.19;4789952;30;20074;-77
2021/06/25 16:59:04;;;;;;;1.70;1.60;;;;;;;17.72;67.61;101495.31;4788640;30;20043;-77
2021/06/25 17:01:29;;;;;;;4.88;1.90;;;;;;;17.79;67.06;101482.47;4790429;30;20035;-77
2021/06/25 17:03:55;;;;;;;4.05;1.80;;;;;;;17.89;66.93;101494.72;4788778;30;20148;-77
2021/06/25 17:06:20;;;;;;;2.28;1.80;;;;;;;17.89;66.76;101494.72;4805411;29;20043;-77
2021/06/25 17:08:47;;;;;;;2.53;1.85;;;;;;;17.90;66.94;101493.66;4792729;30;20039;-77
2021/06/25 17:11:13;;;;;;;3.65;1.90;;;;;;;17.68;67.14;101477.78;4788460;30;20104;-77
2021/06/25 17:13:39;;;;;;;3.80;1.65;;;;;;;17.96;66.92;101495.44;4788168;30;20381;-77
2021/06/25 17:16:06;;;;;;;1.50;1.40;;;;;;;18.11;65.66;101493.09;4789011;29;20035;-77
2021/06/25 17:18:32;;;;;;;2.10;1.58;;;;;;;18.13;65.13;101496.44;4787803;29;20058;-77
2021/06/25 17:20:57;;;;;;;2.05;1.85;;;;;;;18.18;65.19;101465.78;4774586;30;20070;-77
2021/06/25 17:23:23;;;;;;;2.97;1.70;;;;;;;18.26;64.91;101477.16;4787074;29;20123;-77
2021/06/25 17:25:48;;;;;;;2.28;1.45;;;;;;;18.37;64.33;101474.69;4788978;29;20102;-78
2021/06/25 17:28:14;;;;;;;2.20;1.60;;;;;;;18.48;64.28;101484.81;4788989;29;20031;-78
2021/06/25 17:30:40;;;;;;;1.80;1.40;;;;;;;18.67;64.05;101483.59;4789938;29;20108;-78
2021/06/25 17:33:05;;;;;;;2.47;2.10;;;;;;;18.59;65.21;101474.97;4780001;30;20039;-78
2021/06/25 17:35:31;;;;;;;2.47;1.92;;;;;;;18.47;65.68;101480.41;4784392;29;20051;-77
2021/06/25 17:37:59;;;;;;;3.28;2.05;;;;;;;18.39;65.06;101476.13;4800267;29;20027;-78
2021/06/25 17:40:25;;;;;;;2.08;1.88;;;;;;;18.22;65.38;101486.06;4798184;29;20031;-78
2021/06/25 17:42:50;;;;;;;2.42;1.98;;;;;;;17.94;66.03;101460.25;4805527;29;20039;-78
2021/06/25 17:45:16;;;;;;;3.70;1.95;;;;;;;18.35;65.50;101485.84;4789803;29;20595;-78
2021/06/25 17:47:43;;;;;;;2.00;1.77;;;;;;;18.54;64.51;101483.84;4788333;29;20043;-78
2021/06/25 17:50:12;;;;;;;2.92;2.03;;;;;;;18.64;64.21;101469.63;4788047;29;20038;-78
2021/06/25 17:52:38;;;;;;;4.45;1.98;;;;;;;18.79;63.89;101470.03;4787981;29;20027;-78
2021/06/25 17:55:06;;;;;;;4.30;2.00;;;;;;;18.90;63.22;101482.00;4785376;29;20039;-78
2021/06/25 17:57:32;;;;;;;3.30;2.03;;;;;;;18.72;63.81;101472.88;4785896;30;20043;-78
2021/06/25 17:59:57;;;;;;;3.17;2.22;;;;;;;18.87;63.72;101493.38;4771632;30;20028;-78
2021/06/25 18:02:23;;;;;;;2.20;1.88;;;;;;;18.89;63.95;101496.69;4786876;30;20035;-78
2021/06/25 18:04:48;;;;;;;4.20;2.20;;;;;;;18.80;63.93;101492.66;4767541;30;20061;-78
2021/06/25 18:07:14;;;;;;;3.08;2.13;;;;;;;18.79;63.86;101500.03;4786552;30;20035;-78
2021/06/25 18:09:39;;;;;;;5.88;2.20;;;;;;;18.72;64.40;101497.41;4787434;29;20577;-78
2021/06/25 18:12:06;;;;;;;3.13;2.10;;;;;;;18.76;64.05;101504.03;4788830;29;20043;-78
2021/06/25 18:14:32;;;;;;;4.38;2.30;;;;;;;18.80;64.09;101501.66;4784574;29;20046;-78
2021/06/25 18:16:57;;;;;;;3.15;2.03;;;;;;;18.85;63.67;101490.91;4772390;30;20043;-78
2021/06/25 18:19:23;;;;;;;4.32;2.47;;;;;;;18.96;63.39;101503.69;4791322;29;20055;-78
2021/06/25 18:21:49;;;;;;;3.72;2.13;;;;;;;18.93;63.55;101495.16;4786057;29;20039;-78
2021/06/25 18:24:14;;;;;;;2.70;2.08;;;;;;;19.09;63.52;101501.78;4792307;29;20104;-79
2021/06/25 18:26:40;;;;;;;4.28;2.70;;;;;;;19.10;63.46;101514.34;4785501;29;20039;-79
2021/06/25 18:29:05;;;;;;;4.50;2.60;;;;;;;18.97;64.14;101512.69;4786132;29;20370;-79
2021/06/25 18:31:31;;;;;;;4.25;2.00;;;;;;;18.91;64.44;101505.47;4797549;29;20084;-78
2021/06/25 18:33:57;;;;;;;4.03;2.25;;;;;;;18.74;64.70;101527.16;4787002;29;20107;-78
2021/06/25 18:36:23;;;;;;;2.97;2.33;;;;;;;18.55;65.48;101519.06;4787259;29;20043;-79
2021/06/25 18:38:49;;;;;;;4.68;2.25;;;;;;;18.30;65.78;101521.13;4786069;30;20514;-79
2021/06/25 18:41:15;;;;;;;3.05;2.40;;;;;;;18.06;66.70;101520.22;4788063;29;20180;-78
2021/06/25 18:43:40;;;;;;;4.25;2.80;;;;;;;17.90;67.24;101523.59;4795075;29;20110;-77
2021/06/25 18:46:06;;;;;;;5.95;2.60;;;;;;;17.63;67.91;101496.69;4776325;30;20039;-77
2021/06/25 18:48:34;;;;;;;4.20;2.30;;;;;;;17.75;67.89;101518.53;4772986;30;20023;-77
2021/06/25 18:51:00;;;;;;;3.45;2.28;;;;;;;17.65;68.39;101510.91;4772990;29;20034;-77
2021/06/25 18:53:25;;;;;;;3.45;2.40;;;;;;;17.67;68.07;101516.94;4772519;30;20050;-77
2021/06/25 18:55:51;;;;;;;4.60;2.60;;;;;;;17.74;68.11;101523.13;4788292;30;20042;-78
2021/06/25 18:58:18;;;;;;;4.57;2.40;;;;;;;17.78;68.04;101526.25;4787675;30;20527;-78
2021/06/25 19:00:44;;;;;;;5.72;3.60;;;;;;;17.78;68.25;101521.66;4788971;30;20477;-78
2021/06/25 19:03:10;;;;;;;3.35;2.50;;;;;;;17.95;68.07;101518.31;4786826;30;20577;-76
2021/06/25 19:05:36;;;;;;;5.32;3.35;;;;;;;18.21;66.86;101520.66;4792757;29;20046;-77
2021/06/25 19:08:03;;;;;;;4.10;2.30;;;;;;;18.26;66.77;101504.41;4804424;29;20387;-77
2021/06/25 19:10:29;;;;;;;5.47;2.60;;;;;;;18.56;66.65;101525.31;4787656;30;20039;-77
2021/06/25 19:12:54;;;;;;;8.20;3.10;;;;;;;18.38;67.16;101528.97;4787871;29;20046;-78
2021/06/25 19:15:20;;;;;;;3.45;2.97;;;;;;;18.27;67.32;101532.47;4786718;29;20047;-77
2021/06/25 19:17:46;;;;;;;4.15;2.50;;;;;;;18.16;67.63;101534.13;4786359;29;20031;-78
2021/06/25 19:20:14;;;;;;;4.28;2.50;;;;;;;18.03;67.81;101528.84;4799195;29;20038;-78
2021/06/25 19:22:40;;;;;;;3.95;2.35;;;;;;;18.05;67.90;101534.91;4772610;30;20027;-78
2021/06/25 19:25:08;;;;;;;2.85;2.25;;;;;;;17.90;68.65;101535.31;4782228;29;20110;-78
2021/06/25 19:27:34;;;;;;;4.00;2.63;;;;;;;17.69;68.81;101525.72;4788104;29;20126;-78
2021/06/25 19:29:59;;;;;;;4.35;2.42;;;;;;;17.44;69.85;101535.84;4788506;29;20139;-77
2021/06/25 19:32:25;;;;;;;4.03;2.58;;;;;;;17.21;70.43;101523.75;4791667;29;20100;-77
2021/06/25 19:34:50;;;;;;;6.40;2.70;;;;;;;17.17;71.12;101538.88;4778214;29;20148;-77
2021/06/25 19:37:16;;;;;;;3.55;2.85;;;;;;;17.12;71.15;101547.72;4787150;30;20069;-77
2021/06/25 19:39:41;;;;;;;3.80;2.58;;;;;;;17.02;71.46;101547.41;4756680;30;20037;-77
2021/06/25 19:42:07;;;;;;;4.07;2.92;;;;;;;16.95;71.46;101551.22;4786758;30;20027;-77
2021/06/25 19:44:32;;;;;;;5.45;3.08;;;;;;;16.83;71.73;101549.22;4787998;30;20082;-77
2021/06/25 19:47:03;;;;;;;4.43;3.05;;;;;;;16.77;72.19;101550.13;4787672;30;20042;-77
2021/06/25 19:49:29;;;;;;;4.70;3.17;;;;;;;16.64;72.59;101542.88;4786244;30;20057;-77
2021/06/25 19:51:54;;;;;;;3.95;3.53;;;;;;;16.68;72.93;101559.56;4787031;30;20035;-77
2021/06/25 19:54:20;;;;;;;7.18;3.70;;;;;;;16.65;73.10;101563.56;4787282;29;20390;-77
2021/06/25 19:56:48;;;;;;;4.90;3.13;;;;;;;16.61;73.24;101572.38;4792264;29;20038;-77
2021/06/25 19:59:14;;;;;;;4.10;3.30;;;;;;;16.58;73.65;101567.38;4775692;30;20038;-77
2021/06/25 20:01:39;;;;;;;4.05;3.30;;;;;;;16.55;73.54;101578.69;4790356;29;20039;-77
2021/06/25 20:04:04;;;;;;;7.55;3.80;;;;;;;16.53;73.48;101576.19;4775271;30;20055;-77
2021/06/25 20:06:30;;;;;;;5.22;3.60;;;;;;;16.50;73.60;101586.66;4792983;29;20095;-77
2021/06/25 20:08:55;;;;;;;5.40;3.55;;;;;;;16.45;74.15;101581.88;4796422;29;20451;-77
2021/06/25 20:11:21;;;;;;;4.53;3.65;;;;;;;16.44;73.86;101588.38;4797349;29;20066;-77
2021/06/25 20:13:46;;;;;;;3.80;3.35;;;;;;;16.36;74.19;101580.50;4782086;30;20110;-77
2021/06/25 20:16:11;;;;;;;4.38;3.42;;;;;;;16.43;74.01;101579.38;4776308;30;20560;-77
2021/06/25 20:18:37;;;;;;;5.45;3.30;;;;;;;16.10;74.65;101538.88;4778168;29;20042;-77
2021/06/25 20:21:03;;;;;;;4.80;3.90;;;;;;;16.35;75.23;101582.34;4794003;29;20416;-77
2021/06/25 20:23:30;;;;;;;4.00;3.50;;;;;;;16.35;75.77;101578.81;4804492;29;20508;-77
2021/06/25 20:25:55;;;;;;;4.90;4.28;;;;;;;16.32;77.10;101579.25;4790327;29;20032;-77
2021/06/25 20:28:30;;;;;;;9.75;4.88;;;;;;;16.33;77.58;101581.75;4774461;30;20379;-77
2021/06/25 20:30:59;;;;;;;8.90;4.97;;;;;;;16.28;78.51;101589.72;4791936;29;20071;-77
2021/06/25 20:33:25;;;;;;;8.88;5.35;;;;;;;16.14;79.54;101583.53;4794416;29;20133;-77
2021/06/25 20:35:52;;;;;;;9.15;5.20;;;;;;;16.08;79.59;101595.25;4777769;30;20196;-77
2021/06/25 20:38:17;;;;;;;6.30;4.70;;;;;;;16.09;79.79;101605.06;4791165;30;20036;-77
2021/06/25 20:40:43;;;;;;;10.07;5.40;;;;;;;16.00;80.23;101600.13;4789268;30;20462;-77
2021/06/25 20:43:08;;;;;;;6.28;4.78;;;;;;;15.97;80.68;101609.50;4789292;29;20065;-77
2021/06/25 20:45:34;;;;;;;7.60;4.75;;;;;;;15.95;80.92;101612.44;4790710;29;20027;-78
2021/06/25 20:48:00;;;;;;;6.20;4.68;;;;;;;15.83;81.13;101597.06;4801680;29;20047;-79
2021/06/25 20:50:26;;;;;;;6.88;3.95;;;;;;;15.90;81.24;101611.44;4799512;29;20035;-78
2021/06/25 20:52:51;;;;;;;5.68;4.07;;;;;;;15.91;81.60;101611.19;4785268;30;20037;-78
2021/06/25 20:55:18;;;;;;;4.57;4.13;;;;;;;15.83;82.20;101603.31;4804013;29;20096;-78
2021/06/25 20:57:44;;;;;;;6.18;5.10;;;;;;;15.89;82.63;101609.72;4786686;29;20035;-78
2021/06/25 21:00:12;;;;;;;9.65;6.80;;;;;;;15.80;82.91;101608.34;4787796;30;20050;-78
2021/06/25 21:02:38;;;;;;;8.25;6.25;;;;;;;15.73;83.29;101608.34;4794154;29;20362;-78
2021/06/25 21:05:07;;;;;;;9.23;6.10;;;;;;;15.66;83.55;101604.78;4780577;29;20050;-78
2021/06/25 21:07:32;;;;;;;9.50;6.50;;;;;;;15.64;83.72;101615.03;4784137;29;20031;-78
2021/06/25 21:09:59;;;;;;;7.07;6.38;;;;;;;15.61;83.98;101615.44;4789155;30;20035;-78
2021/06/25 21:12:24;;;;;;;7.95;6.20;;;;;;;15.56;84.12;101621.50;4784745;30;20516;-78
2021/06/25 21:14:50;;;;;;;6.00;5.30;;;;;;;15.52;84.18;101618.38;4787897;30;20046;-78
2021/06/25 21:17:15;;;;;;;5.47;4.53;;;;;;;15.49;84.07;101615.25;4787798;30;20035;-78
2021/06/25 21:19:40;;;;;;;5.65;4.03;;;;;;;15.50;83.73;101615.06;4789310;29;20125;-78
2021/06/25 21:22:06;;;;;;;4.00;3.55;;;;;;;15.51;83.40;101615.88;4760546;30;20043;-79
2021/06/25 21:24:32;;;;;;;5.20;3.92;;;;;;;15.40;83.77;101614.66;4791450;29;20475;-78
2021/06/25 21:26:57;;;;;;;5.43;4.65;;;;;;;15.39;84.08;101598.59;4774611;30;20374;-79
2021/06/25 21:29:23;;;;;;;5.47;4.90;;;;;;;15.53;84.17;101621.94;4790318;30;20473;-78
2021/06/25 21:31:49;;;;;;;5.63;5.13;;;;;;;15.48;84.62;101625.28;4790044;30;20027;-79
2021/06/25 21:34:17;;;;;;;7.25;4.90;;;;;;;15.48;84.51;101624.44;4774448;30;20039;-78
2021/06/25 21:36:43;;;;;;;6.13;4.28;;;;;;;15.45;84.66;101622.97;4789355;29;20035;-77
2021/06/25 21:39:09;;;;;;;5.28;4.78;;;;;;;15.44;84.63;101626.75;4788624;30;20110;-78
2021/06/25 21:41:34;;;;;;;6.18;5.35;;;;;;;15.42;85.21;101620.69;4780899;30;20407;-78
2021/06/25 21:43:59;;;;;;;5.55;4.90;;;;;;;15.31;84.97;101610.50;4786167;30;20054;-78
2021/06/25 21:46:25;;;;;;;6.38;5.72;;;;;;;15.39;85.38;101623.81;4772518;30;20036;-78
2021/06/25 21:48:51;;;;;;;5.80;5.15;;;;;;;15.34;85.31;101620.91;4796633;29;20058;-79
2021/06/25 21:51:16;;;;;;;5.22;4.80;;;;;;;15.36;85.54;101610.69;4790999;29;20486;-79
2021/06/25 21:53:41;;;;;;;5.20;4.70;;;;;;;15.38;85.67;101618.63;4793736;29;20035;-79
2021/06/25 21:56:07;;;;;;;6.18;5.45;;;;;;;15.27;85.51;101614.69;4776636;30;20071;-78
2021/06/25 21:58:32;;;;;;;6.22;4.93;;;;;;;15.26;85.93;101610.28;4774646;30;20046;-78
2021/06/25 22:00:58;;;;;;;7.30;5.25;;;;;;;15.34;85.67;101626.34;4789216;29;20035;-80
2021/06/25 22:03:25;;;;;;;6.00;5.00;;;;;;;15.36;85.66;101626.94;4804507;29;20040;-79
2021/06/25 22:05:50;;;;;;;7.80;6.00;;;;;;;15.30;86.01;101627.81;4803395;29;20046;-79
2021/06/25 22:08:16;;;;;;;8.48;6.75;;;;;;;15.31;86.18;101625.94;4804184;29;20043;-79
2021/06/25 22:10:42;;;;;;;8.80;6.43;;;;;;;15.31;86.07;101625.94;4803393;29;20439;-79
2021/06/25 22:13:07;;;;;;;8.25;6.35;;;;;;;15.25;86.31;101619.47;4790478;29;20043;-79
2021/06/25 22:15:33;;;;;;;8.90;6.60;;;;;;;15.19;86.47;101621.13;4791545;29;20043;-79
2021/06/25 22:17:59;;;;;;;8.30;6.88;;;;;;;15.23;86.62;101618.81;4796122;29;20027;-79
2021/06/25 22:20:25;;;;;;;9.55;6.68;;;;;;;15.24;86.55;101618.63;4794554;29;20370;-79
2021/06/25 22:22:51;;;;;;;8.50;6.65;;;;;;;15.24;86.44;101615.09;4767255;29;20052;-79
2021/06/25 22:25:17;;;;;;;8.55;7.07;;;;;;;15.26;86.11;101626.53;4793042;29;20058;-79
2021/06/25 22:27:43;;;;;;;9.13;7.50;;;;;;;15.18;86.66;101597.78;4796764;29;20026;-79
2021/06/25 22:30:10;;;;;;;11.75;10.52;;;;;;;15.23;86.45;101614.25;4813866;29;20035;-79
2021/06/25 22:32:36;;;;;;;9.43;7.57;;;;;;;15.17;86.49;101603.44;4782153;30;20035;-79
2021/06/25 22:35:03;;;;;;;9.07;5.88;;;;;;;15.25;86.57;101608.63;4791353;30;20422;-80
2021/06/25 22:37:30;;;;;;;10.23;8.25;;;;;;;15.33;86.79;101619.25;4774324;30;20047;-80
2021/06/25 22:39:55;;;;;;;11.80;8.10;;;;;;;15.31;86.99;101626.75;4797222;29;20142;-80
2021/06/25 22:42:21;;;;;;;11.80;7.72;;;;;;;15.23;86.83;101627.81;4791416;29;20390;-79
2021/06/25 22:44:47;;;;;;;11.73;8.15;;;;;;;15.23;87.00;101625.13;4795246;30;20499;-80
2021/06/25 22:47:12;;;;;;;13.65;9.48;;;;;;;15.20;86.59;101619.28;4796400;30;20038;-79
2021/06/25 22:49:38;;;;;;;11.20;8.65;;;;;;;15.16;87.01;101618.00;4796032;30;20043;-80
2021/06/25 22:52:04;;;;;;;15.32;9.32;;;;;;;15.21;86.80;101623.66;4793707;30;20459;-79
2021/06/25 22:54:30;;;;;;;12.88;10.00;;;;;;;15.15;87.01;101602.78;4786881;30;20363;-79
2021/06/25 22:56:57;;;;;;;13.90;10.63;;;;;;;15.20;87.39;101613.84;4774312;30;20071;-79
2021/06/25 22:59:24;;;;;;;16.60;11.57;;;;;;;15.20;87.12;101619.28;4786888;29;20439;-79
2021/06/25 23:01:51;;;;;;;18.63;12.82;;;;;;;15.16;87.22;101618.00;4787940;30;20108;-79
2021/06/25 23:04:17;;;;;;;22.73;15.77;;;;;;;15.17;87.25;101615.09;4786667;29;20055;-79
2021/06/25 23:06:43;;;;;;;25.63;15.27;;;;;;;15.19;87.00;101618.41;4788096;29;20054;-78
2021/06/25 23:09:08;;;;;;;30.67;18.52;;;;;;;15.21;87.23;101618.22;4787620;29;20043;-80
2021/06/25 23:11:35;;;;;;;35.53;19.92;;;;;;;15.22;87.38;101611.75;4772390;30;20035;-79
2021/06/25 23:14:01;;;;;;;27.40;16.02;;;;;;;15.20;87.49;101619.28;4787708;30;20470;-79
2021/06/25 23:16:27;;;;;;;18.20;10.77;;;;;;;15.22;86.98;101628.84;4788216;29;20111;-79
2021/06/25 23:18:53;;;;;;;13.80;9.88;;;;;;;15.17;86.91;101619.69;4786226;30;20031;-79
2021/06/25 23:21:19;;;;;;;15.85;9.38;;;;;;;15.12;87.36;101617.59;4778665;30;20411;-79
2021/06/25 23:23:44;;;;;;;14.90;9.50;;;;;;;15.11;87.25;101606.97;4792074;29;20109;-79
2021/06/25 23:26:10;;;;;;;12.63;9.10;;;;;;;15.02;87.54;101601.75;4795266;29;20482;-79
2021/06/25 23:28:36;;;;;;;13.50;9.23;;;;;;;15.02;87.33;101601.75;4775264;30;20046;-79
2021/06/25 23:31:01;;;;;;;14.02;9.57;;;;;;;15.07;87.59;101613.88;4776670;29;20054;-79
2021/06/25 23:33:27;;;;;;;15.40;10.73;;;;;;;15.08;87.39;101615.53;4773717;30;20370;-79
2021/06/25 23:35:52;;;;;;;14.60;11.40;;;;;;;15.06;87.21;101614.88;4783878;30;20042;-79
2021/06/25 23:38:18;;;;;;;16.23;12.07;;;;;;;15.03;87.46;101613.41;4771006;30;20479;-79
2021/06/25 23:40:45;;;;;;;9.48;7.70;;;;;;;15.09;87.40;101619.88;4770835;30;20134;-79
2021/06/25 23:43:11;;;;;;;11.85;8.57;;;;;;;15.02;87.56;101609.06;4778932;30;20042;-79
2021/06/25 23:45:36;;;;;;;12.43;10.20;;;;;;;15.12;87.91;101616.75;4787122;30;20057;-79
2021/06/25 23:48:04;;;;;;;8.55;7.55;;;;;;;15.04;87.87;101615.09;4788282;29;20043;-79
2021/06/25 23:50:29;;;;;;;7.32;6.25;;;;;;;15.04;87.95;101615.94;4787266;29;20042;-78
2021/06/25 23:52:55;;;;;;;9.35;6.93;;;;;;;14.98;87.91;101603.22;4787153;29;20031;-80
2021/06/25 23:55:20;;;;;;;8.85;6.78;;;;;;;15.04;88.17;101610.50;4787054;30;20031;-79
2021/06/25 23:57:45;;;;;;;8.30;6.60;;;;;;;14.91;88.47;101602.38;4786305;30;20031;-79
